sensor_id;sensor_type;location;lat;lon;timestamp;P1;durP1;ratioP1;P2;durP2;ratioP2
69789;SDS011;57064;52.046;4.800;2022-12-29T00:01:33;5.00;;;2.00;;
69789;SDS011;57064;52.046;4.800;2022-12-29T00:03:59;6.30;;;2.30;;
69789;SDS011;57064;52.046;4.800;2022-12-29T00:06:26;3.25;;;2.20;;
69789;SDS011;57064;52.046;4.800;2022-12-29T00:08:53;4.32;;;2.45;;
69789;SDS011;57064;52.046;4.800;2022-12-29T00:11:23;2.53;;;1.38;;
69789;SDS011;57064;52.046;4.800;2022-12-29T00:13:50;2.53;;;1.63;;
69789;SDS011;57064;52.046;4.800;2022-12-29T00:16:35;2.70;;;1.38;;
69789;SDS011;57064;52.046;4.800;2022-12-29T00:19:02;2.60;;;1.90;;
69789;SDS011;57064;52.046;4.800;2022-12-29T00:21:29;4.13;;;1.73;;
69789;SDS011;57064;52.046;4.800;2022-12-29T00:24:15;3.97;;;1.60;;
69789;SDS011;57064;52.046;4.800;2022-12-29T00:27:03;3.47;;;1.75;;
69789;SDS011;57064;52.046;4.800;2022-12-29T00:29:54;2.63;;;1.70;;
69789;SDS011;57064;52.046;4.800;2022-12-29T00:32:39;3.92;;;1.92;;
69789;SDS011;57064;52.046;4.800;2022-12-29T00:37:54;5.20;;;1.83;;
69789;SDS011;57064;52.046;4.800;2022-12-29T00:40:42;2.95;;;1.45;;
69789;SDS011;57064;52.046;4.800;2022-12-29T00:43:26;4.05;;;1.95;;
69789;SDS011;57064;52.046;4.800;2022-12-29T00:46:11;4.57;;;1.60;;
69789;SDS011;57064;52.046;4.800;2022-12-29T00:48:37;2.28;;;1.63;;
69789;SDS011;57064;52.046;4.800;2022-12-29T00:51:22;3.58;;;1.67;;
69789;SDS011;57064;52.046;4.800;2022-12-29T00:53:48;3.38;;;1.90;;
69789;SDS011;57064;52.046;4.800;2022-12-29T00:56:14;3.35;;;1.75;;
69789;SDS011;57064;52.046;4.800;2022-12-29T00:58:40;2.60;;;1.20;;
69789;SDS011;57064;52.046;4.800;2022-12-29T01:01:07;2.08;;;1.55;;
69789;SDS011;57064;52.046;4.800;2022-12-29T01:03:34;2.38;;;1.40;;
69789;SDS011;57064;52.046;4.800;2022-12-29T01:06:05;3.28;;;1.52;;
69789;SDS011;57064;52.046;4.800;2022-12-29T01:08:32;2.22;;;1.23;;
69789;SDS011;57064;52.046;4.800;2022-12-29T01:11:02;3.47;;;1.77;;
69789;SDS011;57064;52.046;4.800;2022-12-29T01:13:31;2.45;;;1.55;;
69789;SDS011;57064;52.046;4.800;2022-12-29T01:15:58;2.65;;;1.80;;
69789;SDS011;57064;52.046;4.800;2022-12-29T01:18:24;3.25;;;1.80;;
69789;SDS011;57064;52.046;4.800;2022-12-29T01:20:50;3.72;;;1.98;;
69789;SDS011;57064;52.046;4.800;2022-12-29T01:23:23;4.10;;;2.17;;
69789;SDS011;57064;52.046;4.800;2022-12-29T01:25:49;3.95;;;1.83;;
69789;SDS011;57064;52.046;4.800;2022-12-29T01:28:15;3.50;;;2.10;;
69789;SDS011;57064;52.046;4.800;2022-12-29T01:30:41;2.38;;;1.60;;
69789;SDS011;57064;52.046;4.800;2022-12-29T01:33:07;3.03;;;1.60;;
69789;SDS011;57064;52.046;4.800;2022-12-29T01:35:33;3.10;;;1.98;;
69789;SDS011;57064;52.046;4.800;2022-12-29T01:37:59;1.77;;;1.20;;
69789;SDS011;57064;52.046;4.800;2022-12-29T01:40:25;2.15;;;1.42;;
69789;SDS011;57064;52.046;4.800;2022-12-29T01:42:51;3.50;;;1.63;;
69789;SDS011;57064;52.046;4.800;2022-12-29T01:45:17;3.45;;;1.90;;
69789;SDS011;57064;52.046;4.800;2022-12-29T01:47:52;4.88;;;2.03;;
69789;SDS011;57064;52.046;4.800;2022-12-29T01:52:56;2.88;;;2.05;;
69789;SDS011;57064;52.046;4.800;2022-12-29T01:55:31;1.65;;;1.30;;
69789;SDS011;57064;52.046;4.800;2022-12-29T01:58:01;3.80;;;1.60;;
69789;SDS011;57064;52.046;4.800;2022-12-29T02:00:30;5.53;;;1.75;;
69789;SDS011;57064;52.046;4.800;2022-12-29T02:02:56;3.03;;;1.50;;
69789;SDS011;57064;52.046;4.800;2022-12-29T02:05:39;3.97;;;1.27;;
69789;SDS011;57064;52.046;4.800;2022-12-29T02:08:06;3.17;;;1.15;;
69789;SDS011;57064;52.046;4.800;2022-12-29T02:10:34;3.72;;;1.50;;
69789;SDS011;57064;52.046;4.800;2022-12-29T02:13:01;2.90;;;1.15;;
69789;SDS011;57064;52.046;4.800;2022-12-29T02:18:05;3.70;;;1.05;;
69789;SDS011;57064;52.046;4.800;2022-12-29T02:26:27;2.85;;;1.30;;
69789;SDS011;57064;52.046;4.800;2022-12-29T02:40:17;4.32;;;0.90;;
69789;SDS011;57064;52.046;4.800;2022-12-29T02:45:54;3.95;;;0.80;;
69789;SDS011;57064;52.046;4.800;2022-12-29T02:48:38;3.42;;;0.65;;
69789;SDS011;57064;52.046;4.800;2022-12-29T02:53:44;1.95;;;0.77;;
69789;SDS011;57064;52.046;4.800;2022-12-29T02:56:29;5.25;;;0.85;;
69789;SDS011;57064;52.046;4.800;2022-12-29T02:58:55;7.07;;;1.20;;
69789;SDS011;57064;52.046;4.800;2022-12-29T03:04:01;4.07;;;2.38;;
69789;SDS011;57064;52.046;4.800;2022-12-29T03:06:48;5.90;;;0.90;;
69789;SDS011;57064;52.046;4.800;2022-12-29T03:09:37;5.68;;;0.90;;
69789;SDS011;57064;52.046;4.800;2022-12-29T03:12:15;7.50;;;1.17;;
69789;SDS011;57064;52.046;4.800;2022-12-29T03:15:10;6.05;;;1.83;;
69789;SDS011;57064;52.046;4.800;2022-12-29T03:18:04;3.03;;;0.90;;
69789;SDS011;57064;52.046;4.800;2022-12-29T03:20:52;10.65;;;1.48;;
69789;SDS011;57064;52.046;4.800;2022-12-29T03:23:20;4.28;;;0.82;;
69789;SDS011;57064;52.046;4.800;2022-12-29T03:25:48;3.33;;;1.27;;
69789;SDS011;57064;52.046;4.800;2022-12-29T03:28:25;5.45;;;0.82;;
69789;SDS011;57064;52.046;4.800;2022-12-29T03:30:54;3.20;;;0.65;;
69789;SDS011;57064;52.046;4.800;2022-12-29T03:33:23;3.42;;;0.90;;
69789;SDS011;57064;52.046;4.800;2022-12-29T03:35:52;5.43;;;0.88;;
69789;SDS011;57064;52.046;4.800;2022-12-29T03:38:24;9.95;;;1.23;;
69789;SDS011;57064;52.046;4.800;2022-12-29T03:40:55;5.78;;;1.00;;
69789;SDS011;57064;52.046;4.800;2022-12-29T03:43:23;6.60;;;0.80;;
69789;SDS011;57064;52.046;4.800;2022-12-29T03:45:51;5.35;;;0.85;;
69789;SDS011;57064;52.046;4.800;2022-12-29T03:48:17;8.25;;;0.90;;
69789;SDS011;57064;52.046;4.800;2022-12-29T03:50:43;5.80;;;0.93;;
69789;SDS011;57064;52.046;4.800;2022-12-29T03:53:09;3.10;;;0.80;;
69789;SDS011;57064;52.046;4.800;2022-12-29T03:55:35;1.95;;;0.80;;
69789;SDS011;57064;52.046;4.800;2022-12-29T03:58:01;3.92;;;0.80;;
69789;SDS011;57064;52.046;4.800;2022-12-29T04:00:27;4.00;;;0.80;;
69789;SDS011;57064;52.046;4.800;2022-12-29T04:02:53;6.40;;;0.70;;
69789;SDS011;57064;52.046;4.800;2022-12-29T04:05:19;5.45;;;1.15;;
69789;SDS011;57064;52.046;4.800;2022-12-29T04:07:46;4.10;;;1.42;;
69789;SDS011;57064;52.046;4.800;2022-12-29T04:10:12;9.18;;;1.20;;
69789;SDS011;57064;52.046;4.800;2022-12-29T04:12:38;9.07;;;1.13;;
69789;SDS011;57064;52.046;4.800;2022-12-29T04:15:06;4.10;;;0.90;;
69789;SDS011;57064;52.046;4.800;2022-12-29T04:17:34;12.20;;;2.05;;
69789;SDS011;57064;52.046;4.800;2022-12-29T04:20:00;3.63;;;0.95;;
69789;SDS011;57064;52.046;4.800;2022-12-29T04:22:45;5.85;;;1.10;;
69789;SDS011;57064;52.046;4.800;2022-12-29T04:25:11;9.05;;;1.83;;
69789;SDS011;57064;52.046;4.800;2022-12-29T04:27:37;9.25;;;1.10;;
69789;SDS011;57064;52.046;4.800;2022-12-29T04:30:03;6.85;;;1.77;;
69789;SDS011;57064;52.046;4.800;2022-12-29T04:32:29;8.35;;;0.90;;
69789;SDS011;57064;52.046;4.800;2022-12-29T04:34:55;7.20;;;1.02;;
69789;SDS011;57064;52.046;4.800;2022-12-29T04:37:22;7.05;;;1.15;;
69789;SDS011;57064;52.046;4.800;2022-12-29T04:39:48;8.93;;;1.27;;
69789;SDS011;57064;52.046;4.800;2022-12-29T04:42:14;5.82;;;1.13;;
69789;SDS011;57064;52.046;4.800;2022-12-29T04:44:40;9.32;;;1.38;;
69789;SDS011;57064;52.046;4.800;2022-12-29T04:47:06;8.18;;;1.45;;
69789;SDS011;57064;52.046;4.800;2022-12-29T04:49:32;6.93;;;1.33;;
69789;SDS011;57064;52.046;4.800;2022-12-29T04:51:58;5.35;;;1.40;;
69789;SDS011;57064;52.046;4.800;2022-12-29T04:54:24;9.35;;;1.52;;
69789;SDS011;57064;52.046;4.800;2022-12-29T04:56:50;7.88;;;1.27;;
69789;SDS011;57064;52.046;4.800;2022-12-29T04:59:16;7.38;;;1.50;;
69789;SDS011;57064;52.046;4.800;2022-12-29T05:01:42;6.43;;;1.38;;
69789;SDS011;57064;52.046;4.800;2022-12-29T05:04:08;8.88;;;1.42;;
69789;SDS011;57064;52.046;4.800;2022-12-29T05:06:34;8.05;;;1.67;;
69789;SDS011;57064;52.046;4.800;2022-12-29T05:09:00;7.70;;;1.10;;
69789;SDS011;57064;52.046;4.800;2022-12-29T05:11:26;7.80;;;1.50;;
69789;SDS011;57064;52.046;4.800;2022-12-29T05:13:52;10.45;;;1.55;;
69789;SDS011;57064;52.046;4.800;2022-12-29T05:16:18;10.43;;;1.88;;
69789;SDS011;57064;52.046;4.800;2022-12-29T05:18:44;11.68;;;1.80;;
69789;SDS011;57064;52.046;4.800;2022-12-29T05:21:10;8.10;;;1.30;;
69789;SDS011;57064;52.046;4.800;2022-12-29T05:23:36;7.50;;;1.83;;
69789;SDS011;57064;52.046;4.800;2022-12-29T05:26:02;6.75;;;1.58;;
69789;SDS011;57064;52.046;4.800;2022-12-29T05:28:28;10.68;;;1.67;;
69789;SDS011;57064;52.046;4.800;2022-12-29T05:30:54;6.93;;;1.88;;
69789;SDS011;57064;52.046;4.800;2022-12-29T05:33:20;11.27;;;1.55;;
69789;SDS011;57064;52.046;4.800;2022-12-29T05:35:46;14.45;;;1.77;;
69789;SDS011;57064;52.046;4.800;2022-12-29T05:38:12;11.55;;;1.65;;
69789;SDS011;57064;52.046;4.800;2022-12-29T05:40:38;13.25;;;1.77;;
69789;SDS011;57064;52.046;4.800;2022-12-29T05:43:05;14.25;;;2.28;;
69789;SDS011;57064;52.046;4.800;2022-12-29T05:45:31;12.48;;;1.63;;
69789;SDS011;57064;52.046;4.800;2022-12-29T05:47:57;8.38;;;1.83;;
69789;SDS011;57064;52.046;4.800;2022-12-29T05:50:23;13.18;;;2.30;;
69789;SDS011;57064;52.046;4.800;2022-12-29T05:52:49;10.05;;;2.10;;
69789;SDS011;57064;52.046;4.800;2022-12-29T05:55:16;12.68;;;2.35;;
69789;SDS011;57064;52.046;4.800;2022-12-29T05:57:42;8.82;;;1.52;;
69789;SDS011;57064;52.046;4.800;2022-12-29T06:00:08;10.15;;;1.95;;
69789;SDS011;57064;52.046;4.800;2022-12-29T06:02:34;12.10;;;1.75;;
69789;SDS011;57064;52.046;4.800;2022-12-29T06:05:00;8.60;;;1.98;;
69789;SDS011;57064;52.046;4.800;2022-12-29T06:07:26;14.80;;;1.73;;
69789;SDS011;57064;52.046;4.800;2022-12-29T06:09:53;12.38;;;1.90;;
69789;SDS011;57064;52.046;4.800;2022-12-29T06:12:19;6.38;;;1.42;;
69789;SDS011;57064;52.046;4.800;2022-12-29T06:14:45;11.80;;;2.50;;
69789;SDS011;57064;52.046;4.800;2022-12-29T06:17:11;10.95;;;1.63;;
69789;SDS011;57064;52.046;4.800;2022-12-29T06:19:37;19.05;;;2.67;;
69789;SDS011;57064;52.046;4.800;2022-12-29T06:22:03;12.95;;;1.80;;
69789;SDS011;57064;52.046;4.800;2022-12-29T06:24:29;10.35;;;1.52;;
69789;SDS011;57064;52.046;4.800;2022-12-29T06:26:55;16.48;;;1.90;;
69789;SDS011;57064;52.046;4.800;2022-12-29T06:29:21;15.40;;;2.17;;
69789;SDS011;57064;52.046;4.800;2022-12-29T06:31:47;11.80;;;2.08;;
69789;SDS011;57064;52.046;4.800;2022-12-29T06:34:14;10.70;;;1.48;;
69789;SDS011;57064;52.046;4.800;2022-12-29T06:36:40;13.02;;;2.22;;
69789;SDS011;57064;52.046;4.800;2022-12-29T06:39:06;11.27;;;1.63;;
69789;SDS011;57064;52.046;4.800;2022-12-29T06:41:32;14.70;;;2.13;;
69789;SDS011;57064;52.046;4.800;2022-12-29T06:43:58;10.00;;;2.08;;
69789;SDS011;57064;52.046;4.800;2022-12-29T06:46:24;7.72;;;2.10;;
69789;SDS011;57064;52.046;4.800;2022-12-29T06:48:50;15.02;;;2.13;;
69789;SDS011;57064;52.046;4.800;2022-12-29T06:51:16;6.25;;;1.20;;
69789;SDS011;57064;52.046;4.800;2022-12-29T06:53:42;9.32;;;2.10;;
69789;SDS011;57064;52.046;4.800;2022-12-29T06:56:08;15.23;;;1.60;;
69789;SDS011;57064;52.046;4.800;2022-12-29T06:58:34;11.15;;;1.58;;
69789;SDS011;57064;52.046;4.800;2022-12-29T07:01:00;10.43;;;1.80;;
69789;SDS011;57064;52.046;4.800;2022-12-29T07:03:26;8.98;;;1.45;;
69789;SDS011;57064;52.046;4.800;2022-12-29T07:05:52;5.68;;;1.45;;
69789;SDS011;57064;52.046;4.800;2022-12-29T07:08:19;5.35;;;0.98;;
69789;SDS011;57064;52.046;4.800;2022-12-29T07:10:46;11.45;;;1.33;;
69789;SDS011;57064;52.046;4.800;2022-12-29T07:13:12;12.68;;;1.73;;
69789;SDS011;57064;52.046;4.800;2022-12-29T07:15:38;9.20;;;1.58;;
69789;SDS011;57064;52.046;4.800;2022-12-29T07:18:04;8.80;;;1.95;;
69789;SDS011;57064;52.046;4.800;2022-12-29T07:20:30;12.25;;;2.13;;
69789;SDS011;57064;52.046;4.800;2022-12-29T07:22:56;6.97;;;2.08;;
69789;SDS011;57064;52.046;4.800;2022-12-29T07:25:23;9.07;;;1.77;;
69789;SDS011;57064;52.046;4.800;2022-12-29T07:27:49;6.03;;;1.70;;
69789;SDS011;57064;52.046;4.800;2022-12-29T07:30:15;13.75;;;2.40;;
69789;SDS011;57064;52.046;4.800;2022-12-29T07:32:41;7.63;;;1.38;;
69789;SDS011;57064;52.046;4.800;2022-12-29T07:35:07;14.02;;;1.95;;
69789;SDS011;57064;52.046;4.800;2022-12-29T07:37:34;10.55;;;1.63;;
69789;SDS011;57064;52.046;4.800;2022-12-29T07:40:00;8.07;;;2.50;;
69789;SDS011;57064;52.046;4.800;2022-12-29T07:42:28;12.88;;;2.28;;
69789;SDS011;57064;52.046;4.800;2022-12-29T07:44:55;14.82;;;1.77;;
69789;SDS011;57064;52.046;4.800;2022-12-29T07:47:21;8.88;;;1.52;;
69789;SDS011;57064;52.046;4.800;2022-12-29T07:49:47;15.23;;;3.00;;
69789;SDS011;57064;52.046;4.800;2022-12-29T07:52:13;11.10;;;1.77;;
69789;SDS011;57064;52.046;4.800;2022-12-29T07:54:39;19.48;;;2.83;;
69789;SDS011;57064;52.046;4.800;2022-12-29T07:57:05;10.57;;;1.83;;
69789;SDS011;57064;52.046;4.800;2022-12-29T07:59:31;11.90;;;2.03;;
69789;SDS011;57064;52.046;4.800;2022-12-29T08:01:57;12.80;;;1.83;;
69789;SDS011;57064;52.046;4.800;2022-12-29T08:04:23;9.93;;;1.58;;
69789;SDS011;57064;52.046;4.800;2022-12-29T08:06:49;7.72;;;1.77;;
69789;SDS011;57064;52.046;4.800;2022-12-29T08:09:16;11.02;;;2.45;;
69789;SDS011;57064;52.046;4.800;2022-12-29T08:11:42;11.73;;;1.85;;
69789;SDS011;57064;52.046;4.800;2022-12-29T08:14:08;12.73;;;2.17;;
69789;SDS011;57064;52.046;4.800;2022-12-29T08:16:34;10.98;;;2.22;;
69789;SDS011;57064;52.046;4.800;2022-12-29T08:19:01;15.57;;;1.70;;
69789;SDS011;57064;52.046;4.800;2022-12-29T08:21:28;27.17;;;2.97;;
69789;SDS011;57064;52.046;4.800;2022-12-29T08:23:54;10.73;;;1.73;;
69789;SDS011;57064;52.046;4.800;2022-12-29T08:26:20;7.00;;;1.45;;
69789;SDS011;57064;52.046;4.800;2022-12-29T08:28:46;14.13;;;1.80;;
69789;SDS011;57064;52.046;4.800;2022-12-29T08:31:12;10.27;;;2.17;;
69789;SDS011;57064;52.046;4.800;2022-12-29T08:33:39;14.80;;;2.88;;
69789;SDS011;57064;52.046;4.800;2022-12-29T08:36:05;11.55;;;2.35;;
69789;SDS011;57064;52.046;4.800;2022-12-29T08:38:32;13.73;;;2.38;;
69789;SDS011;57064;52.046;4.800;2022-12-29T08:40:58;13.07;;;2.50;;
69789;SDS011;57064;52.046;4.800;2022-12-29T08:43:26;15.52;;;3.50;;
69789;SDS011;57064;52.046;4.800;2022-12-29T08:45:52;12.68;;;2.67;;
69789;SDS011;57064;52.046;4.800;2022-12-29T08:48:19;12.75;;;2.55;;
69789;SDS011;57064;52.046;4.800;2022-12-29T08:50:47;9.23;;;1.42;;
69789;SDS011;57064;52.046;4.800;2022-12-29T08:53:14;12.70;;;2.25;;
69789;SDS011;57064;52.046;4.800;2022-12-29T08:55:40;10.80;;;1.80;;
69789;SDS011;57064;52.046;4.800;2022-12-29T08:58:06;16.83;;;3.08;;
69789;SDS011;57064;52.046;4.800;2022-12-29T09:00:32;12.27;;;2.10;;
69789;SDS011;57064;52.046;4.800;2022-12-29T09:02:59;11.80;;;1.73;;
69789;SDS011;57064;52.046;4.800;2022-12-29T09:05:25;22.55;;;2.22;;
69789;SDS011;57064;52.046;4.800;2022-12-29T09:07:51;13.32;;;2.50;;
69789;SDS011;57064;52.046;4.800;2022-12-29T09:10:17;11.10;;;1.92;;
69789;SDS011;57064;52.046;4.800;2022-12-29T09:12:43;11.90;;;2.53;;
69789;SDS011;57064;52.046;4.800;2022-12-29T09:15:09;11.18;;;2.00;;
69789;SDS011;57064;52.046;4.800;2022-12-29T09:17:37;14.48;;;2.40;;
69789;SDS011;57064;52.046;4.800;2022-12-29T09:20:07;9.90;;;2.10;;
69789;SDS011;57064;52.046;4.800;2022-12-29T09:22:34;9.65;;;1.75;;
69789;SDS011;57064;52.046;4.800;2022-12-29T09:25:01;13.88;;;2.35;;
69789;SDS011;57064;52.046;4.800;2022-12-29T09:27:27;8.25;;;1.73;;
69789;SDS011;57064;52.046;4.800;2022-12-29T09:29:54;9.57;;;1.85;;
69789;SDS011;57064;52.046;4.800;2022-12-29T09:32:21;14.93;;;1.90;;
69789;SDS011;57064;52.046;4.800;2022-12-29T09:34:47;8.98;;;1.70;;
69789;SDS011;57064;52.046;4.800;2022-12-29T09:37:13;11.55;;;2.42;;
69789;SDS011;57064;52.046;4.800;2022-12-29T09:39:39;10.35;;;1.33;;
69789;SDS011;57064;52.046;4.800;2022-12-29T09:47:38;8.73;;;2.28;;
69789;SDS011;57064;52.046;4.800;2022-12-29T09:52:44;11.65;;;2.42;;
69789;SDS011;57064;52.046;4.800;2022-12-29T09:55:19;12.82;;;1.77;;
69789;SDS011;57064;52.046;4.800;2022-12-29T09:57:48;7.10;;;1.67;;
69789;SDS011;57064;52.046;4.800;2022-12-29T10:00:37;12.50;;;2.30;;
69789;SDS011;57064;52.046;4.800;2022-12-29T10:03:17;10.52;;;2.15;;
69789;SDS011;57064;52.046;4.800;2022-12-29T10:08:31;17.52;;;2.55;;
69789;SDS011;57064;52.046;4.800;2022-12-29T10:14:17;13.48;;;2.30;;
69789;SDS011;57064;52.046;4.800;2022-12-29T10:22:50;11.90;;;2.70;;
69789;SDS011;57064;52.046;4.800;2022-12-29T10:25:22;10.80;;;3.53;;
69789;SDS011;57064;52.046;4.800;2022-12-29T10:27:50;11.48;;;3.15;;
69789;SDS011;57064;52.046;4.800;2022-12-29T10:30:18;13.98;;;4.57;;
69789;SDS011;57064;52.046;4.800;2022-12-29T10:32:54;12.80;;;3.50;;
69789;SDS011;57064;52.046;4.800;2022-12-29T10:35:25;14.77;;;3.17;;
69789;SDS011;57064;52.046;4.800;2022-12-29T10:40:48;20.52;;;4.50;;
69789;SDS011;57064;52.046;4.800;2022-12-29T10:43:37;15.30;;;3.22;;
69789;SDS011;57064;52.046;4.800;2022-12-29T10:46:13;12.82;;;3.00;;
69789;SDS011;57064;52.046;4.800;2022-12-29T10:48:43;20.65;;;3.28;;
69789;SDS011;57064;52.046;4.800;2022-12-29T10:51:13;12.18;;;3.47;;
69789;SDS011;57064;52.046;4.800;2022-12-29T10:53:48;13.27;;;2.88;;
69789;SDS011;57064;52.046;4.800;2022-12-29T10:56:27;16.65;;;2.92;;
69789;SDS011;57064;52.046;4.800;2022-12-29T10:58:55;21.17;;;3.58;;
69789;SDS011;57064;52.046;4.800;2022-12-29T11:01:26;20.58;;;3.53;;
69789;SDS011;57064;52.046;4.800;2022-12-29T11:04:03;21.85;;;3.08;;
69789;SDS011;57064;52.046;4.800;2022-12-29T11:06:52;20.20;;;3.38;;
69789;SDS011;57064;52.046;4.800;2022-12-29T11:09:24;18.77;;;2.42;;
69789;SDS011;57064;52.046;4.800;2022-12-29T11:11:52;17.08;;;2.75;;
69789;SDS011;57064;52.046;4.800;2022-12-29T11:14:29;17.00;;;3.30;;
69789;SDS011;57064;52.046;4.800;2022-12-29T11:17:00;19.65;;;3.05;;
69789;SDS011;57064;52.046;4.800;2022-12-29T11:19:28;16.00;;;2.67;;
69789;SDS011;57064;52.046;4.800;2022-12-29T11:22:39;20.58;;;2.88;;
69789;SDS011;57064;52.046;4.800;2022-12-29T11:24:47;20.00;;;3.08;;
69789;SDS011;57064;52.046;4.800;2022-12-29T11:29:51;14.75;;;2.58;;
69789;SDS011;57064;52.046;4.800;2022-12-29T11:32:22;16.77;;;2.58;;
69789;SDS011;57064;52.046;4.800;2022-12-29T11:34:52;19.65;;;3.30;;
69789;SDS011;57064;52.046;4.800;2022-12-29T11:39:56;19.52;;;3.53;;
69789;SDS011;57064;52.046;4.800;2022-12-29T11:42:41;19.25;;;3.10;;
69789;SDS011;57064;52.046;4.800;2022-12-29T11:45:18;13.38;;;2.38;;
69789;SDS011;57064;52.046;4.800;2022-12-29T11:47:49;15.35;;;2.95;;
69789;SDS011;57064;52.046;4.800;2022-12-29T11:50:25;12.20;;;2.90;;
69789;SDS011;57064;52.046;4.800;2022-12-29T11:52:58;19.38;;;2.90;;
69789;SDS011;57064;52.046;4.800;2022-12-29T11:55:24;10.85;;;2.58;;
69789;SDS011;57064;52.046;4.800;2022-12-29T11:57:53;22.38;;;3.38;;
69789;SDS011;57064;52.046;4.800;2022-12-29T12:00:21;12.57;;;2.85;;
69789;SDS011;57064;52.046;4.800;2022-12-29T12:02:53;19.83;;;2.63;;
69789;SDS011;57064;52.046;4.800;2022-12-29T12:05:30;13.38;;;2.30;;
69789;SDS011;57064;52.046;4.800;2022-12-29T12:10:58;19.17;;;2.60;;
69789;SDS011;57064;52.046;4.800;2022-12-29T12:13:43;16.00;;;2.40;;
69789;SDS011;57064;52.046;4.800;2022-12-29T12:30:50;14.85;;;2.28;;
69789;SDS011;57064;52.046;4.800;2022-12-29T12:41:56;17.73;;;2.50;;
69789;SDS011;57064;52.046;4.800;2022-12-29T13:09:29;11.52;;;2.78;;
69789;SDS011;57064;52.046;4.800;2022-12-29T13:12:15;10.13;;;2.40;;
69789;SDS011;57064;52.046;4.800;2022-12-29T13:17:46;20.48;;;3.50;;
69789;SDS011;57064;52.046;4.800;2022-12-29T13:21:18;12.65;;;1.83;;
69789;SDS011;57064;52.046;4.800;2022-12-29T13:23:29;10.95;;;1.38;;
69789;SDS011;57064;52.046;4.800;2022-12-29T13:36:46;10.02;;;2.80;;
69789;SDS011;57064;52.046;4.800;2022-12-29T13:41:56;11.93;;;2.95;;
69789;SDS011;57064;52.046;4.800;2022-12-29T13:44:23;15.38;;;3.42;;
69789;SDS011;57064;52.046;4.800;2022-12-29T13:47:00;10.18;;;2.20;;
69789;SDS011;57064;52.046;4.800;2022-12-29T13:49:40;10.65;;;3.08;;
69789;SDS011;57064;52.046;4.800;2022-12-29T13:52:15;14.07;;;2.67;;
69789;SDS011;57064;52.046;4.800;2022-12-29T13:54:46;10.20;;;2.00;;
69789;SDS011;57064;52.046;4.800;2022-12-29T14:00:18;7.28;;;1.75;;
69789;SDS011;57064;52.046;4.800;2022-12-29T14:07:47;7.75;;;1.40;;
69789;SDS011;57064;52.046;4.800;2022-12-29T14:10:26;3.58;;;0.88;;
69789;SDS011;57064;52.046;4.800;2022-12-29T14:13:13;6.70;;;1.30;;
69789;SDS011;57064;52.046;4.800;2022-12-29T14:15:53;5.43;;;1.00;;
69789;SDS011;57064;52.046;4.800;2022-12-29T14:18:26;6.63;;;2.35;;
69789;SDS011;57064;52.046;4.800;2022-12-29T14:26:13;8.80;;;1.63;;
69789;SDS011;57064;52.046;4.800;2022-12-29T14:28:55;7.97;;;3.47;;
69789;SDS011;57064;52.046;4.800;2022-12-29T14:31:40;6.28;;;2.92;;
69789;SDS011;57064;52.046;4.800;2022-12-29T14:38:59;6.68;;;1.95;;
69789;SDS011;57064;52.046;4.800;2022-12-29T14:41:32;11.48;;;2.15;;
69789;SDS011;57064;52.046;4.800;2022-12-29T14:49:41;7.15;;;1.45;;
69789;SDS011;57064;52.046;4.800;2022-12-29T14:52:17;8.95;;;2.70;;
69789;SDS011;57064;52.046;4.800;2022-12-29T14:54:48;10.85;;;3.08;;
69789;SDS011;57064;52.046;4.800;2022-12-29T14:57:19;8.70;;;1.73;;
69789;SDS011;57064;52.046;4.800;2022-12-29T15:00:00;9.77;;;2.63;;
69789;SDS011;57064;52.046;4.800;2022-12-29T15:02:32;7.00;;;1.98;;
69789;SDS011;57064;52.046;4.800;2022-12-29T15:05:03;6.97;;;2.17;;
69789;SDS011;57064;52.046;4.800;2022-12-29T15:07:31;8.20;;;1.65;;
69789;SDS011;57064;52.046;4.800;2022-12-29T15:10:07;13.52;;;2.63;;
69789;SDS011;57064;52.046;4.800;2022-12-29T15:12:49;12.32;;;2.28;;
69789;SDS011;57064;52.046;4.800;2022-12-29T15:15:23;8.13;;;1.70;;
69789;SDS011;57064;52.046;4.800;2022-12-29T15:17:51;11.75;;;3.25;;
69789;SDS011;57064;52.046;4.800;2022-12-29T15:20:51;9.43;;;1.90;;
69789;SDS011;57064;52.046;4.800;2022-12-29T15:23:10;8.13;;;2.15;;
69789;SDS011;57064;52.046;4.800;2022-12-29T15:25:54;8.02;;;3.10;;
69789;SDS011;57064;52.046;4.800;2022-12-29T15:28:22;6.53;;;1.83;;
69789;SDS011;57064;52.046;4.800;2022-12-29T15:30:50;12.25;;;2.15;;
69789;SDS011;57064;52.046;4.800;2022-12-29T15:33:22;15.70;;;2.13;;
69789;SDS011;57064;52.046;4.800;2022-12-29T15:35:51;8.68;;;1.65;;
69789;SDS011;57064;52.046;4.800;2022-12-29T15:38:25;11.20;;;2.05;;
69789;SDS011;57064;52.046;4.800;2022-12-29T15:40:54;8.27;;;1.60;;
69789;SDS011;57064;52.046;4.800;2022-12-29T15:45:55;9.45;;;2.05;;
69789;SDS011;57064;52.046;4.800;2022-12-29T15:48:22;11.68;;;2.03;;
69789;SDS011;57064;52.046;4.800;2022-12-29T15:50:49;11.40;;;1.77;;
69789;SDS011;57064;52.046;4.800;2022-12-29T15:53:18;10.57;;;1.85;;
69789;SDS011;57064;52.046;4.800;2022-12-29T15:55:52;7.95;;;1.70;;
69789;SDS011;57064;52.046;4.800;2022-12-29T15:58:25;9.43;;;1.83;;
69789;SDS011;57064;52.046;4.800;2022-12-29T16:00:58;7.25;;;1.70;;
69789;SDS011;57064;52.046;4.800;2022-12-29T16:03:27;8.32;;;1.70;;
69789;SDS011;57064;52.046;4.800;2022-12-29T16:06:09;11.70;;;1.90;;
69789;SDS011;57064;52.046;4.800;2022-12-29T16:09:07;16.25;;;1.65;;
69789;SDS011;57064;52.046;4.800;2022-12-29T16:11:45;7.95;;;1.85;;
69789;SDS011;57064;52.046;4.800;2022-12-29T16:14:41;6.43;;;1.00;;
69789;SDS011;57064;52.046;4.800;2022-12-29T16:17:12;5.80;;;1.30;;
69789;SDS011;57064;52.046;4.800;2022-12-29T16:22:56;7.85;;;2.00;;
69789;SDS011;57064;52.046;4.800;2022-12-29T16:25:28;7.43;;;1.30;;
69789;SDS011;57064;52.046;4.800;2022-12-29T16:27:59;7.05;;;1.33;;
69789;SDS011;57064;52.046;4.800;2022-12-29T16:30:28;10.55;;;1.92;;
69789;SDS011;57064;52.046;4.800;2022-12-29T16:33:03;7.38;;;1.45;;
69789;SDS011;57064;52.046;4.800;2022-12-29T16:35:44;9.43;;;1.33;;
69789;SDS011;57064;52.046;4.800;2022-12-29T16:38:15;7.65;;;1.55;;
69789;SDS011;57064;52.046;4.800;2022-12-29T16:40:49;10.65;;;2.53;;
69789;SDS011;57064;52.046;4.800;2022-12-29T16:43:21;8.82;;;1.10;;
69789;SDS011;57064;52.046;4.800;2022-12-29T16:48:19;7.75;;;1.88;;
69789;SDS011;57064;52.046;4.800;2022-12-29T16:50:54;7.80;;;1.55;;
69789;SDS011;57064;52.046;4.800;2022-12-29T16:53:34;9.75;;;2.10;;
69789;SDS011;57064;52.046;4.800;2022-12-29T16:56:09;9.38;;;1.77;;
69789;SDS011;57064;52.046;4.800;2022-12-29T16:58:41;12.60;;;1.48;;
69789;SDS011;57064;52.046;4.800;2022-12-29T17:01:12;13.90;;;2.30;;
69789;SDS011;57064;52.046;4.800;2022-12-29T17:03:45;10.18;;;2.60;;
69789;SDS011;57064;52.046;4.800;2022-12-29T17:06:16;8.23;;;1.98;;
69789;SDS011;57064;52.046;4.800;2022-12-29T17:08:44;5.70;;;1.40;;
69789;SDS011;57064;52.046;4.800;2022-12-29T17:11:22;7.40;;;1.52;;
69789;SDS011;57064;52.046;4.800;2022-12-29T17:14:15;7.78;;;1.35;;
69789;SDS011;57064;52.046;4.800;2022-12-29T17:17:03;10.07;;;1.80;;
69789;SDS011;57064;52.046;4.800;2022-12-29T17:19:31;11.93;;;1.65;;
69789;SDS011;57064;52.046;4.800;2022-12-29T17:21:59;12.02;;;2.63;;
69789;SDS011;57064;52.046;4.800;2022-12-29T17:24:25;7.85;;;1.15;;
69789;SDS011;57064;52.046;4.800;2022-12-29T17:26:54;6.50;;;1.48;;
69789;SDS011;57064;52.046;4.800;2022-12-29T17:32:19;9.43;;;2.22;;
69789;SDS011;57064;52.046;4.800;2022-12-29T17:34:45;10.48;;;1.80;;
69789;SDS011;57064;52.046;4.800;2022-12-29T17:37:34;10.02;;;1.60;;
69789;SDS011;57064;52.046;4.800;2022-12-29T17:39:59;8.40;;;1.75;;
69789;SDS011;57064;52.046;4.800;2022-12-29T17:42:27;8.82;;;2.55;;
69789;SDS011;57064;52.046;4.800;2022-12-29T17:44:54;9.95;;;2.40;;